sensor_id;sensor_type;location;lat;lon;timestamp;temperature;humidity
33865;DHT22;20159;51.072;13.526;2022-08-04T00:00:03;22.20;57.20
33865;DHT22;20159;51.072;13.526;2022-08-04T00:05:11;22.20;57.70
33865;DHT22;20159;51.072;13.526;2022-08-04T00:10:43;22.10;57.80
33865;DHT22;20159;51.072;13.526;2022-08-04T00:13:14;22.20;57.70
33865;DHT22;20159;51.072;13.526;2022-08-04T00:15:41;22.10;57.60
33865;DHT22;20159;51.072;13.526;2022-08-04T00:18:08;22.10;57.60
33865;DHT22;20159;51.072;13.526;2022-08-04T00:20:38;22.10;57.90
33865;DHT22;20159;51.072;13.526;2022-08-04T00:23:05;22.10;58.20
33865;DHT22;20159;51.072;13.526;2022-08-04T00:25:32;22.10;58.10
33865;DHT22;20159;51.072;13.526;2022-08-04T00:28:00;22.00;58.00
33865;DHT22;20159;51.072;13.526;2022-08-04T00:30:26;22.00;58.40
33865;DHT22;20159;51.072;13.526;2022-08-04T00:32:51;22.00;58.50
33865;DHT22;20159;51.072;13.526;2022-08-04T00:35:18;22.00;58.60
33865;DHT22;20159;51.072;13.526;2022-08-04T00:37:44;22.00;58.20
33865;DHT22;20159;51.072;13.526;2022-08-04T00:42:48;22.10;58.70
33865;DHT22;20159;51.072;13.526;2022-08-04T00:45:50;22.10;58.70
33865;DHT22;20159;51.072;13.526;2022-08-04T00:48:43;22.10;59.00
33865;DHT22;20159;51.072;13.526;2022-08-04T00:54:17;22.10;58.40
33865;DHT22;20159;51.072;13.526;2022-08-04T00:57:11;22.10;58.20
33865;DHT22;20159;51.072;13.526;2022-08-04T01:00:04;22.10;58.80
33865;DHT22;20159;51.072;13.526;2022-08-04T01:03:07;22.00;58.40
33865;DHT22;20159;51.072;13.526;2022-08-04T01:06:05;22.00;58.70
33865;DHT22;20159;51.072;13.526;2022-08-04T01:08:52;22.00;58.20
33865;DHT22;20159;51.072;13.526;2022-08-04T01:19:52;21.90;58.70
33865;DHT22;20159;51.072;13.526;2022-08-04T01:30:56;21.80;59.20
33865;DHT22;20159;51.072;13.526;2022-08-04T01:33:22;21.80;58.90
33865;DHT22;20159;51.072;13.526;2022-08-04T01:35:54;21.70;58.80
33865;DHT22;20159;51.072;13.526;2022-08-04T01:38:34;21.70;59.20
33865;DHT22;20159;51.072;13.526;2022-08-04T01:41:13;21.70;59.80
33865;DHT22;20159;51.072;13.526;2022-08-04T01:43:43;21.70;59.60
33865;DHT22;20159;51.072;13.526;2022-08-04T01:46:18;21.60;59.70
33865;DHT22;20159;51.072;13.526;2022-08-04T01:48:46;21.60;59.40
33865;DHT22;20159;51.072;13.526;2022-08-04T01:51:18;21.60;59.20
33865;DHT22;20159;51.072;13.526;2022-08-04T01:53:46;21.60;59.70
33865;DHT22;20159;51.072;13.526;2022-08-04T01:56:11;21.60;59.80
33865;DHT22;20159;51.072;13.526;2022-08-04T01:58:39;19.90;58.80
33865;DHT22;20159;51.072;13.526;2022-08-04T02:01:11;21.50;60.00
33865;DHT22;20159;51.072;13.526;2022-08-04T02:03:43;21.50;60.40
33865;DHT22;20159;51.072;13.526;2022-08-04T02:09:19;21.50;60.30
33865;DHT22;20159;51.072;13.526;2022-08-04T02:12:05;21.50;61.00
33865;DHT22;20159;51.072;13.526;2022-08-04T02:14:43;21.40;60.70
33865;DHT22;20159;51.072;13.526;2022-08-04T02:17:37;21.40;60.90
33865;DHT22;20159;51.072;13.526;2022-08-04T02:23:00;21.40;60.90
33865;DHT22;20159;51.072;13.526;2022-08-04T02:25:29;21.40;61.20
33865;DHT22;20159;51.072;13.526;2022-08-04T02:28:15;21.40;60.80
33865;DHT22;20159;51.072;13.526;2022-08-04T02:30:52;21.40;61.20
33865;DHT22;20159;51.072;13.526;2022-08-04T02:33:25;21.40;61.00
33865;DHT22;20159;51.072;13.526;2022-08-04T02:35:59;21.40;60.80
33865;DHT22;20159;51.072;13.526;2022-08-04T02:38:46;21.40;60.80
33865;DHT22;20159;51.072;13.526;2022-08-04T02:41:15;21.40;60.80
33865;DHT22;20159;51.072;13.526;2022-08-04T02:43:41;21.50;60.60
33865;DHT22;20159;51.072;13.526;2022-08-04T02:46:09;21.50;60.60
33865;DHT22;20159;51.072;13.526;2022-08-04T02:48:36;21.60;60.60
33865;DHT22;20159;51.072;13.526;2022-08-04T02:51:03;21.60;60.50
33865;DHT22;20159;51.072;13.526;2022-08-04T02:53:32;21.70;60.40
33865;DHT22;20159;51.072;13.526;2022-08-04T02:56:01;21.70;60.30
33865;DHT22;20159;51.072;13.526;2022-08-04T02:58:30;21.70;60.20
33865;DHT22;20159;51.072;13.526;2022-08-04T03:00:58;21.80;60.40
33865;DHT22;20159;51.072;13.526;2022-08-04T03:03:33;21.80;59.70
33865;DHT22;20159;51.072;13.526;2022-08-04T03:11:55;22.00;59.10
33865;DHT22;20159;51.072;13.526;2022-08-04T03:17:47;22.30;58.60
33865;DHT22;20159;51.072;13.526;2022-08-04T03:20:44;22.40;58.60
33865;DHT22;20159;51.072;13.526;2022-08-04T03:23:38;22.50;58.10
33865;DHT22;20159;51.072;13.526;2022-08-04T03:38:12;23.00;56.70
33865;DHT22;20159;51.072;13.526;2022-08-04T03:41:15;23.10;56.90
33865;DHT22;20159;51.072;13.526;2022-08-04T03:49:32;23.30;56.80
33865;DHT22;20159;51.072;13.526;2022-08-04T03:52:36;23.30;56.80
33865;DHT22;20159;51.072;13.526;2022-08-04T03:55:37;23.40;57.20
33865;DHT22;20159;51.072;13.526;2022-08-04T04:01:27;23.40;56.70
33865;DHT22;20159;51.072;13.526;2022-08-04T04:07:23;23.40;56.90
33865;DHT22;20159;51.072;13.526;2022-08-04T04:15:53;23.30;57.00
33865;DHT22;20159;51.072;13.526;2022-08-04T04:21:50;23.30;57.00
33865;DHT22;20159;51.072;13.526;2022-08-04T04:24:32;23.20;57.50
33865;DHT22;20159;51.072;13.526;2022-08-04T04:27:15;23.20;57.60
33865;DHT22;20159;51.072;13.526;2022-08-04T04:29:54;23.20;57.90
33865;DHT22;20159;51.072;13.526;2022-08-04T04:35:09;23.30;58.20
33865;DHT22;20159;51.072;13.526;2022-08-04T04:46:37;23.90;58.40
33865;DHT22;20159;51.072;13.526;2022-08-04T04:49:34;24.10;58.40
33865;DHT22;20159;51.072;13.526;2022-08-04T04:54:54;24.30;58.20
33865;DHT22;20159;51.072;13.526;2022-08-04T04:57:23;24.40;58.20
33865;DHT22;20159;51.072;13.526;2022-08-04T04:59:57;24.60;58.60
33865;DHT22;20159;51.072;13.526;2022-08-04T05:05:25;24.80;58.90
33865;DHT22;20159;51.072;13.526;2022-08-04T05:08:22;25.00;57.80
33865;DHT22;20159;51.072;13.526;2022-08-04T05:13:53;25.50;58.80
33865;DHT22;20159;51.072;13.526;2022-08-04T05:16:31;25.80;60.20
33865;DHT22;20159;51.072;13.526;2022-08-04T05:19:59;26.10;58.80
33865;DHT22;20159;51.072;13.526;2022-08-04T05:22:24;26.60;59.10
33865;DHT22;20159;51.072;13.526;2022-08-04T05:25:03;27.10;57.90
33865;DHT22;20159;51.072;13.526;2022-08-04T05:27:35;27.60;57.60
33865;DHT22;20159;51.072;13.526;2022-08-04T05:30:04;28.10;58.00
33865;DHT22;20159;51.072;13.526;2022-08-04T05:32:37;28.50;56.90
33865;DHT22;20159;51.072;13.526;2022-08-04T05:35:09;29.00;55.50
33865;DHT22;20159;51.072;13.526;2022-08-04T05:37:37;29.60;55.00
33865;DHT22;20159;51.072;13.526;2022-08-04T05:40:06;30.10;55.00
33865;DHT22;20159;51.072;13.526;2022-08-04T05:42:36;30.50;53.80
33865;DHT22;20159;51.072;13.526;2022-08-04T05:45:03;31.10;51.90
33865;DHT22;20159;51.072;13.526;2022-08-04T05:47:30;31.60;52.30
33865;DHT22;20159;51.072;13.526;2022-08-04T05:49:57;32.00;51.30
33865;DHT22;20159;51.072;13.526;2022-08-04T05:52:24;32.40;51.50
33865;DHT22;20159;51.072;13.526;2022-08-04T05:54:51;32.90;49.80
33865;DHT22;20159;51.072;13.526;2022-08-04T05:57:17;33.40;48.60
33865;DHT22;20159;51.072;13.526;2022-08-04T05:59:44;33.80;48.10
33865;DHT22;20159;51.072;13.526;2022-08-04T06:02:13;34.20;48.70
33865;DHT22;20159;51.072;13.526;2022-08-04T06:04:42;34.60;46.90
33865;DHT22;20159;51.072;13.526;2022-08-04T06:07:08;35.00;46.20
33865;DHT22;20159;51.072;13.526;2022-08-04T06:09:35;35.30;45.60
33865;DHT22;20159;51.072;13.526;2022-08-04T06:12:06;35.40;44.60
33865;DHT22;20159;51.072;13.526;2022-08-04T06:14:39;36.00;44.10
33865;DHT22;20159;51.072;13.526;2022-08-04T06:17:08;36.30;44.00
33865;DHT22;20159;51.072;13.526;2022-08-04T06:19:34;36.70;42.90
33865;DHT22;20159;51.072;13.526;2022-08-04T06:22:03;37.00;42.90
33865;DHT22;20159;51.072;13.526;2022-08-04T06:24:30;37.30;42.00
33865;DHT22;20159;51.072;13.526;2022-08-04T06:26:56;37.50;41.10
33865;DHT22;20159;51.072;13.526;2022-08-04T06:29:22;37.90;41.20
33865;DHT22;20159;51.072;13.526;2022-08-04T06:31:56;38.10;40.80
33865;DHT22;20159;51.072;13.526;2022-08-04T06:34:24;38.30;40.60
33865;DHT22;20159;51.072;13.526;2022-08-04T06:36:51;38.60;39.30
33865;DHT22;20159;51.072;13.526;2022-08-04T06:39:17;38.80;38.90
33865;DHT22;20159;51.072;13.526;2022-08-04T06:41:44;39.00;38.60
33865;DHT22;20159;51.072;13.526;2022-08-04T06:44:10;39.20;38.50
33865;DHT22;20159;51.072;13.526;2022-08-04T06:46:39;39.40;37.80
33865;DHT22;20159;51.072;13.526;2022-08-04T06:49:05;39.60;37.80
33865;DHT22;20159;51.072;13.526;2022-08-04T06:51:33;39.90;37.20
33865;DHT22;20159;51.072;13.526;2022-08-04T06:54:00;40.10;37.10
33865;DHT22;20159;51.072;13.526;2022-08-04T06:56:26;40.30;37.20
33865;DHT22;20159;51.072;13.526;2022-08-04T06:58:54;40.60;36.90
33865;DHT22;20159;51.072;13.526;2022-08-04T07:01:20;40.80;37.30
33865;DHT22;20159;51.072;13.526;2022-08-04T07:03:47;41.00;37.20
33865;DHT22;20159;51.072;13.526;2022-08-04T07:06:13;41.20;36.60
33865;DHT22;20159;51.072;13.526;2022-08-04T07:08:39;41.40;35.90
33865;DHT22;20159;51.072;13.526;2022-08-04T07:11:05;41.60;36.10
33865;DHT22;20159;51.072;13.526;2022-08-04T07:13:31;41.90;35.10
33865;DHT22;20159;51.072;13.526;2022-08-04T07:15:58;42.10;34.90
33865;DHT22;20159;51.072;13.526;2022-08-04T07:18:24;42.20;34.50
33865;DHT22;20159;51.072;13.526;2022-08-04T07:20:50;42.40;34.10
33865;DHT22;20159;51.072;13.526;2022-08-04T07:23:22;42.50;33.60
33865;DHT22;20159;51.072;13.526;2022-08-04T07:25:52;42.70;32.70
33865;DHT22;20159;51.072;13.526;2022-08-04T07:28:19;42.80;33.10
33865;DHT22;20159;51.072;13.526;2022-08-04T07:30:47;42.90;33.00
33865;DHT22;20159;51.072;13.526;2022-08-04T07:33:15;43.00;32.90
33865;DHT22;20159;51.072;13.526;2022-08-04T07:35:41;43.00;31.80
33865;DHT22;20159;51.072;13.526;2022-08-04T07:38:07;43.20;32.00
33865;DHT22;20159;51.072;13.526;2022-08-04T07:40:34;43.30;31.90
33865;DHT22;20159;51.072;13.526;2022-08-04T07:43:00;43.30;31.30
33865;DHT22;20159;51.072;13.526;2022-08-04T07:45:26;43.50;31.50
33865;DHT22;20159;51.072;13.526;2022-08-04T07:47:51;43.60;31.50
33865;DHT22;20159;51.072;13.526;2022-08-04T07:50:17;43.70;31.30
33865;DHT22;20159;51.072;13.526;2022-08-04T07:52:44;43.30;30.50
33865;DHT22;20159;51.072;13.526;2022-08-04T07:55:10;43.80;31.40
33865;DHT22;20159;51.072;13.526;2022-08-04T07:57:37;43.80;30.90
33865;DHT22;20159;51.072;13.526;2022-08-04T08:00:04;43.80;30.80
33865;DHT22;20159;51.072;13.526;2022-08-04T08:02:30;44.00;30.60
33865;DHT22;20159;51.072;13.526;2022-08-04T08:04:57;44.00;31.40
33865;DHT22;20159;51.072;13.526;2022-08-04T08:07:23;44.00;31.20
33865;DHT22;20159;51.072;13.526;2022-08-04T08:09:48;44.20;30.30
33865;DHT22;20159;51.072;13.526;2022-08-04T08:12:15;44.30;30.70
33865;DHT22;20159;51.072;13.526;2022-08-04T08:14:41;44.50;30.40
33865;DHT22;20159;51.072;13.526;2022-08-04T08:17:07;44.70;30.40
33865;DHT22;20159;51.072;13.526;2022-08-04T08:19:33;44.80;30.00
33865;DHT22;20159;51.072;13.526;2022-08-04T08:22:02;44.90;30.50
33865;DHT22;20159;51.072;13.526;2022-08-04T08:24:29;45.10;30.00
33865;DHT22;20159;51.072;13.526;2022-08-04T08:26:55;45.20;29.80
33865;DHT22;20159;51.072;13.526;2022-08-04T08:29:21;45.30;29.50
33865;DHT22;20159;51.072;13.526;2022-08-04T08:31:47;45.40;30.20
33865;DHT22;20159;51.072;13.526;2022-08-04T08:34:13;45.50;29.90
33865;DHT22;20159;51.072;13.526;2022-08-04T08:36:45;45.50;29.70
33865;DHT22;20159;51.072;13.526;2022-08-04T08:44:55;45.80;29.70
33865;DHT22;20159;51.072;13.526;2022-08-04T08:50:57;45.90;29.80
33865;DHT22;20159;51.072;13.526;2022-08-04T08:56:42;45.90;29.50
33865;DHT22;20159;51.072;13.526;2022-08-04T09:02:18;46.00;29.90
33865;DHT22;20159;51.072;13.526;2022-08-04T09:10:45;46.00;29.70
33865;DHT22;20159;51.072;13.526;2022-08-04T09:18:59;45.80;30.30
33865;DHT22;20159;51.072;13.526;2022-08-04T09:21:39;45.80;29.70
33865;DHT22;20159;51.072;13.526;2022-08-04T09:24:13;45.80;30.80
33865;DHT22;20159;51.072;13.526;2022-08-04T09:26:56;45.80;29.80
33865;DHT22;20159;51.072;13.526;2022-08-04T09:35:46;45.50;30.20
33865;DHT22;20159;51.072;13.526;2022-08-04T09:38:22;45.50;30.00
33865;DHT22;20159;51.072;13.526;2022-08-04T09:40:59;45.40;29.80
33865;DHT22;20159;51.072;13.526;2022-08-04T09:43:38;45.40;29.50
33865;DHT22;20159;51.072;13.526;2022-08-04T09:46:23;45.30;29.80
33865;DHT22;20159;51.072;13.526;2022-08-04T09:48:54;45.30;29.50
33865;DHT22;20159;51.072;13.526;2022-08-04T09:54:20;45.20;30.00
33865;DHT22;20159;51.072;13.526;2022-08-04T10:00:09;45.10;30.00
33865;DHT22;20159;51.072;13.526;2022-08-04T10:02:37;45.00;29.80
33865;DHT22;20159;51.072;13.526;2022-08-04T10:05:08;45.00;30.30
33865;DHT22;20159;51.072;13.526;2022-08-04T10:07:47;44.80;30.00
33865;DHT22;20159;51.072;13.526;2022-08-04T10:13:35;44.80;30.30
33865;DHT22;20159;51.072;13.526;2022-08-04T10:19:17;44.80;29.70
33865;DHT22;20159;51.072;13.526;2022-08-04T10:24:47;44.80;29.20
33865;DHT22;20159;51.072;13.526;2022-08-04T10:27:24;44.80;29.50
33865;DHT22;20159;51.072;13.526;2022-08-04T10:29:57;44.80;29.10
33865;DHT22;20159;51.072;13.526;2022-08-04T10:32:45;44.70;29.30
33865;DHT22;20159;51.072;13.526;2022-08-04T10:35:19;44.70;29.50
33865;DHT22;20159;51.072;13.526;2022-08-04T10:38:04;44.70;29.30
33865;DHT22;20159;51.072;13.526;2022-08-04T10:40:47;44.80;29.70
33865;DHT22;20159;51.072;13.526;2022-08-04T10:46:07;45.00;29.70
33865;DHT22;20159;51.072;13.526;2022-08-04T10:53:56;45.30;29.30
33865;DHT22;20159;51.072;13.526;2022-08-04T10:56:35;45.30;29.00
33865;DHT22;20159;51.072;13.526;2022-08-04T10:59:11;45.40;29.40
33865;DHT22;20159;51.072;13.526;2022-08-04T11:01:43;45.30;28.90
33865;DHT22;20159;51.072;13.526;2022-08-04T11:06:40;45.40;28.90
33865;DHT22;20159;51.072;13.526;2022-08-04T11:09:07;45.30;28.80
33865;DHT22;20159;51.072;13.526;2022-08-04T11:11:44;45.10;29.20
33865;DHT22;20159;51.072;13.526;2022-08-04T11:14:18;45.00;29.10
33865;DHT22;20159;51.072;13.526;2022-08-04T11:17:00;44.80;28.80
33865;DHT22;20159;51.072;13.526;2022-08-04T11:22:08;44.60;28.80
33865;DHT22;20159;51.072;13.526;2022-08-04T11:27:34;44.30;28.70
33865;DHT22;20159;51.072;13.526;2022-08-04T11:30:06;44.10;29.10
33865;DHT22;20159;51.072;13.526;2022-08-04T11:38:19;43.90;29.00
33865;DHT22;20159;51.072;13.526;2022-08-04T11:40:46;43.90;29.50
33865;DHT22;20159;51.072;13.526;2022-08-04T11:43:16;43.90;29.70
33865;DHT22;20159;51.072;13.526;2022-08-04T11:45:52;43.90;29.00
33865;DHT22;20159;51.072;13.526;2022-08-04T11:48:23;43.90;29.20
33865;DHT22;20159;51.072;13.526;2022-08-04T11:50:54;43.90;29.20
33865;DHT22;20159;51.072;13.526;2022-08-04T11:53:24;44.00;29.10
33865;DHT22;20159;51.072;13.526;2022-08-04T11:55:53;43.90;29.10
33865;DHT22;20159;51.072;13.526;2022-08-04T11:58:20;43.90;29.20
33865;DHT22;20159;51.072;13.526;2022-08-04T12:01:15;43.90;28.90
33865;DHT22;20159;51.072;13.526;2022-08-04T12:06:29;44.20;29.50
33865;DHT22;20159;51.072;13.526;2022-08-04T12:09:35;44.30;29.20
33865;DHT22;20159;51.072;13.526;2022-08-04T12:12:18;44.50;29.40
33865;DHT22;20159;51.072;13.526;2022-08-04T12:15:19;44.70;29.10
33865;DHT22;20159;51.072;13.526;2022-08-04T12:17:49;44.90;29.50
33865;DHT22;20159;51.072;13.526;2022-08-04T12:20:18;45.10;29.30
33865;DHT22;20159;51.072;13.526;2022-08-04T12:22:49;45.20;28.90
33865;DHT22;20159;51.072;13.526;2022-08-04T12:25:23;45.30;28.70
33865;DHT22;20159;51.072;13.526;2022-08-04T12:27:54;45.40;28.80
33865;DHT22;20159;51.072;13.526;2022-08-04T12:30:21;45.50;28.90
33865;DHT22;20159;51.072;13.526;2022-08-04T12:33:04;45.60;28.90
33865;DHT22;20159;51.072;13.526;2022-08-04T12:35:39;45.70;28.70
33865;DHT22;20159;51.072;13.526;2022-08-04T12:38:11;45.80;28.50
33865;DHT22;20159;51.072;13.526;2022-08-04T12:40:51;45.80;28.70
33865;DHT22;20159;51.072;13.526;2022-08-04T12:48:46;45.90;28.10
33865;DHT22;20159;51.072;13.526;2022-08-04T12:51:12;45.90;28.30
33865;DHT22;20159;51.072;13.526;2022-08-04T12:53:40;45.90;28.10
33865;DHT22;20159;51.072;13.526;2022-08-04T12:56:08;45.90;28.40
33865;DHT22;20159;51.072;13.526;2022-08-04T12:58:44;45.90;28.50
33865;DHT22;20159;51.072;13.526;2022-08-04T13:01:19;45.90;28.20
33865;DHT22;20159;51.072;13.526;2022-08-04T13:06:13;45.90;28.70
33865;DHT22;20159;51.072;13.526;2022-08-04T13:08:42;45.80;28.40
33865;DHT22;20159;51.072;13.526;2022-08-04T13:11:09;45.80;28.10
33865;DHT22;20159;51.072;13.526;2022-08-04T13:13:37;45.70;28.10
33865;DHT22;20159;51.072;13.526;2022-08-04T13:16:10;45.50;28.20
33865;DHT22;20159;51.072;13.526;2022-08-04T13:18:38;45.30;28.20
33865;DHT22;20159;51.072;13.526;2022-08-04T13:21:18;45.10;28.30
33865;DHT22;20159;51.072;13.526;2022-08-04T13:23:51;44.80;27.80
33865;DHT22;20159;51.072;13.526;2022-08-04T13:26:18;44.60;27.80
33865;DHT22;20159;51.072;13.526;2022-08-04T13:28:47;44.50;28.20
33865;DHT22;20159;51.072;13.526;2022-08-04T13:31:15;44.20;28.40
33865;DHT22;20159;51.072;13.526;2022-08-04T13:33:45;44.00;28.10
33865;DHT22;20159;51.072;13.526;2022-08-04T13:36:12;43.90;28.10
33865;DHT22;20159;51.072;13.526;2022-08-04T13:38:53;43.70;28.10
33865;DHT22;20159;51.072;13.526;2022-08-04T13:41:20;43.50;28.90
33865;DHT22;20159;51.072;13.526;2022-08-04T13:43:49;43.40;28.80
33865;DHT22;20159;51.072;13.526;2022-08-04T13:46:25;43.20;28.80
33865;DHT22;20159;51.072;13.526;2022-08-04T13:48:52;43.20;29.00
33865;DHT22;20159;51.072;13.526;2022-08-04T13:51:20;43.20;29.50
33865;DHT22;20159;51.072;13.526;2022-08-04T13:53:55;43.40;29.00
33865;DHT22;20159;51.072;13.526;2022-08-04T13:56:22;43.50;29.10
33865;DHT22;20159;51.072;13.526;2022-08-04T13:58:48;43.80;28.50
33865;DHT22;20159;51.072;13.526;2022-08-04T14:01:21;44.00;28.50
33865;DHT22;20159;51.072;13.526;2022-08-04T14:03:58;44.40;28.60
33865;DHT22;20159;51.072;13.526;2022-08-04T14:06:30;44.70;28.60
33865;DHT22;20159;51.072;13.526;2022-08-04T14:09:17;45.00;28.40
33865;DHT22;20159;51.072;13.526;2022-08-04T14:11:52;45.50;28.40
33865;DHT22;20159;51.072;13.526;2022-08-04T14:14:22;45.80;28.20
33865;DHT22;20159;51.072;13.526;2022-08-04T14:17:11;46.10;27.80
33865;DHT22;20159;51.072;13.526;2022-08-04T14:19:58;46.50;28.20
33865;DHT22;20159;51.072;13.526;2022-08-04T14:27:29;47.30;27.70
33865;DHT22;20159;51.072;13.526;2022-08-04T14:29:55;47.40;27.50
33865;DHT22;20159;51.072;13.526;2022-08-04T14:32:21;47.60;27.70
33865;DHT22;20159;51.072;13.526;2022-08-04T14:34:46;47.70;27.20
33865;DHT22;20159;51.072;13.526;2022-08-04T14:37:14;47.80;27.20
33865;DHT22;20159;51.072;13.526;2022-08-04T14:39:47;47.90;27.20
33865;DHT22;20159;51.072;13.526;2022-08-04T14:42:13;47.90;27.20
33865;DHT22;20159;51.072;13.526;2022-08-04T14:44:56;47.90;27.00
33865;DHT22;20159;51.072;13.526;2022-08-04T14:47:42;47.70;27.10
33865;DHT22;20159;51.072;13.526;2022-08-04T14:50:09;47.60;27.40
33865;DHT22;20159;51.072;13.526;2022-08-04T14:52:35;47.50;27.70
33865;DHT22;20159;51.072;13.526;2022-08-04T14:55:21;47.30;27.30
33865;DHT22;20159;51.072;13.526;2022-08-04T14:57:49;47.10;27.20
33865;DHT22;20159;51.072;13.526;2022-08-04T15:00:44;46.90;27.30
33865;DHT22;20159;51.072;13.526;2022-08-04T15:03:11;46.50;27.50
33865;DHT22;20159;51.072;13.526;2022-08-04T15:05:39;46.20;27.20
33865;DHT22;20159;51.072;13.526;2022-08-04T15:08:05;45.80;27.70
33865;DHT22;20159;51.072;13.526;2022-08-04T15:10:31;45.40;27.40
33865;DHT22;20159;51.072;13.526;2022-08-04T15:12:57;45.10;27.80
33865;DHT22;20159;51.072;13.526;2022-08-04T15:15:23;45.10;28.20
33865;DHT22;20159;51.072;13.526;2022-08-04T15:17:51;44.50;28.10
33865;DHT22;20159;51.072;13.526;2022-08-04T15:20:17;44.30;27.80
33865;DHT22;20159;51.072;13.526;2022-08-04T15:22:42;44.10;28.00
33865;DHT22;20159;51.072;13.526;2022-08-04T15:25:08;43.90;27.80
33865;DHT22;20159;51.072;13.526;2022-08-04T15:27:36;43.90;28.10
33865;DHT22;20159;51.072;13.526;2022-08-04T15:30:05;43.80;28.00
33865;DHT22;20159;51.072;13.526;2022-08-04T15:32:33;43.90;28.60
33865;DHT22;20159;51.072;13.526;2022-08-04T15:35:08;43.90;28.10
33865;DHT22;20159;51.072;13.526;2022-08-04T15:37:57;44.10;27.80
33865;DHT22;20159;51.072;13.526;2022-08-04T15:45:26;44.50;27.80
33865;DHT22;20159;51.072;13.526;2022-08-04T15:50:25;44.50;27.40
33865;DHT22;20159;51.072;13.526;2022-08-04T15:55:40;44.30;27.40
33865;DHT22;20159;51.072;13.526;2022-08-04T15:58:11;44.30;27.60
33865;DHT22;20159;51.072;13.526;2022-08-04T16:16:27;44.70;27.70
33865;DHT22;20159;51.072;13.526;2022-08-04T16:18:53;44.90;27.90
33865;DHT22;20159;51.072;13.526;2022-08-04T16:21:21;45.10;27.40
33865;DHT22;20159;51.072;13.526;2022-08-04T16:23:59;45.30;27.80
33865;DHT22;20159;51.072;13.526;2022-08-04T16:29:23;45.70;27.00
33865;DHT22;20159;51.072;13.526;2022-08-04T16:34:57;46.10;27.40
33865;DHT22;20159;51.072;13.526;2022-08-04T16:37:34;46.20;27.70
33865;DHT22;20159;51.072;13.526;2022-08-04T16:42:49;46.50;27.10
33865;DHT22;20159;51.072;13.526;2022-08-04T16:45:15;46.50;27.40
33865;DHT22;20159;51.072;13.526;2022-08-04T16:50:20;46.60;27.00
33865;DHT22;20159;51.072;13.526;2022-08-04T16:52:48;46.50;26.90
33865;DHT22;20159;51.072;13.526;2022-08-04T16:55:18;46.40;27.10
33865;DHT22;20159;51.072;13.526;2022-08-04T16:57:48;46.10;27.20
33865;DHT22;20159;51.072;13.526;2022-08-04T17:00:14;45.80;27.10
33865;DHT22;20159;51.072;13.526;2022-08-04T17:02:41;45.40;27.20
33865;DHT22;20159;51.072;13.526;2022-08-04T17:05:20;45.00;27.30
33865;DHT22;20159;51.072;13.526;2022-08-04T17:07:56;44.50;27.40
33865;DHT22;20159;51.072;13.526;2022-08-04T17:10:43;44.00;27.50
33865;DHT22;20159;51.072;13.526;2022-08-04T17:13:24;43.50;28.30
33865;DHT22;20159;51.072;13.526;2022-08-04T17:15:53;43.00;28.20
33865;DHT22;20159;51.072;13.526;2022-08-04T17:18:24;42.60;28.10
33865;DHT22;20159;51.072;13.526;2022-08-04T17:20:52;42.10;28.10
33865;DHT22;20159;51.072;13.526;2022-08-04T17:23:26;41.70;28.00
33865;DHT22;20159;51.072;13.526;2022-08-04T17:26:01;41.30;28.40
33865;DHT22;20159;51.072;13.526;2022-08-04T17:28:27;40.90;28.30
33865;DHT22;20159;51.072;13.526;2022-08-04T17:30:55;40.60;28.80
33865;DHT22;20159;51.072;13.526;2022-08-04T17:33:23;40.20;29.10
33865;DHT22;20159;51.072;13.526;2022-08-04T17:35:49;39.80;29.30
33865;DHT22;20159;51.072;13.526;2022-08-04T17:38:15;39.60;29.40
33865;DHT22;20159;51.072;13.526;2022-08-04T17:40:59;39.20;29.30
33865;DHT22;20159;51.072;13.526;2022-08-04T17:43:53;38.90;29.40
33865;DHT22;20159;51.072;13.526;2022-08-04T17:49:00;38.30;30.20
33865;DHT22;20159;51.072;13.526;2022-08-04T17:51:45;38.10;30.80
33865;DHT22;20159;51.072;13.526;2022-08-04T17:54:28;37.80;31.10
33865;DHT22;20159;51.072;13.526;2022-08-04T17:57:11;37.60;31.60
33865;DHT22;20159;51.072;13.526;2022-08-04T17:59:45;37.40;31.40
33865;DHT22;20159;51.072;13.526;2022-08-04T18:02:11;37.10;31.50
33865;DHT22;20159;51.072;13.526;2022-08-04T18:04:38;36.90;32.30
33865;DHT22;20159;51.072;13.526;2022-08-04T18:07:34;36.70;32.40
33865;DHT22;20159;51.072;13.526;2022-08-04T18:10:00;36.40;32.70
33865;DHT22;20159;51.072;13.526;2022-08-04T18:12:27;36.30;32.80
33865;DHT22;20159;51.072;13.526;2022-08-04T18:14:56;36.10;33.00
33865;DHT22;20159;51.072;13.526;2022-08-04T18:17:35;35.80;33.20
33865;DHT22;20159;51.072;13.526;2022-08-04T18:20:05;35.60;33.30
33865;DHT22;20159;51.072;13.526;2022-08-04T18:22:31;35.40;33.30
33865;DHT22;20159;51.072;13.526;2022-08-04T18:24:56;35.20;33.50
33865;DHT22;20159;51.072;13.526;2022-08-04T18:27:26;35.00;33.80
33865;DHT22;20159;51.072;13.526;2022-08-04T18:29:52;34.90;34.20
33865;DHT22;20159;51.072;13.526;2022-08-04T18:32:17;34.70;34.80
33865;DHT22;20159;51.072;13.526;2022-08-04T18:34:44;34.40;35.20
33865;DHT22;20159;51.072;13.526;2022-08-04T18:37:10;34.30;35.90
33865;DHT22;20159;51.072;13.526;2022-08-04T18:39:35;34.10;35.90
33865;DHT22;20159;51.072;13.526;2022-08-04T18:42:01;33.80;36.50
33865;DHT22;20159;51.072;13.526;2022-08-04T18:44:27;33.70;36.80
33865;DHT22;20159;51.072;13.526;2022-08-04T18:46:54;33.50;37.10
33865;DHT22;20159;51.072;13.526;2022-08-04T18:49:19;33.20;37.00
33865;DHT22;20159;51.072;13.526;2022-08-04T18:51:51;33.10;37.70
33865;DHT22;20159;51.072;13.526;2022-08-04T18:54:17;32.80;37.80
33865;DHT22;20159;51.072;13.526;2022-08-04T18:56:43;32.60;38.30
33865;DHT22;20159;51.072;13.526;2022-08-04T18:59:08;32.40;38.00
33865;DHT22;20159;51.072;13.526;2022-08-04T19:01:34;32.20;38.10
33865;DHT22;20159;51.072;13.526;2022-08-04T19:04:00;32.00;38.50
33865;DHT22;20159;51.072;13.526;2022-08-04T19:06:28;31.80;38.90
33865;DHT22;20159;51.072;13.526;2022-08-04T19:08:54;31.70;38.80
33865;DHT22;20159;51.072;13.526;2022-08-04T19:11:19;31.40;39.10
33865;DHT22;20159;51.072;13.526;2022-08-04T19:13:45;31.30;39.20
33865;DHT22;20159;51.072;13.526;2022-08-04T19:16:11;31.10;39.80
33865;DHT22;20159;51.072;13.526;2022-08-04T19:18:36;31.00;40.00
33865;DHT22;20159;51.072;13.526;2022-08-04T19:21:02;30.80;40.10
33865;DHT22;20159;51.072;13.526;2022-08-04T19:23:28;30.70;40.00
33865;DHT22;20159;51.072;13.526;2022-08-04T19:25:55;30.50;40.20
33865;DHT22;20159;51.072;13.526;2022-08-04T19:28:21;30.40;40.40